Time;durP1;ratioP1;P1;durP2;ratioP2;P2;SDS_P1;SDS_P2;PMS_P1;PMS_P2;Temp;Humidity;BMP_temperature;BMP_pressure;BME280_temperature;BME280_humidity;BME280_pressure;Samples;Min_cycle;Max_cycle;Signal;HPM_P1;HPM_P2
2023/04/19 00:00:30;;;;;;;7.53;5.35;;;;;;;;;;5050748;28;20064;-72
2023/04/19 00:02:56;;;;;;;7.15;4.80;;;;;;;;;;5027750;28;20048;-72
2023/04/19 00:05:23;;;;;;;7.03;5.40;;;;;;;;;;5051827;28;20478;-72
2023/04/19 00:07:50;;;;;;;8.05;5.82;;;;;;;;;;5048472;28;20057;-71
2023/04/19 00:10:16;;;;;;;6.93;5.45;;;;;;;;;;5044312;28;20029;-72
2023/04/19 00:12:42;;;;;;;8.38;5.88;;;;;;;;;;5055050;28;20419;-72
2023/04/19 00:15:08;;;;;;;11.15;5.75;;;;;;;;;;5053745;28;20040;-72
2023/04/19 00:17:35;;;;;;;6.63;5.15;;;;;;;;;;5047784;28;20037;-72
2023/04/19 00:20:01;;;;;;;8.35;4.72;;;;;;;;;;5045743;28;20087;-72
2023/04/19 00:22:27;;;;;;;6.95;5.13;;;;;;;;;;5045379;28;20048;-72
2023/04/19 00:24:53;;;;;;;9.02;5.28;;;;;;;;;;5031850;28;20118;-72
2023/04/19 00:27:19;;;;;;;8.35;5.72;;;;;;;;;;5046274;28;20041;-72
2023/04/19 00:29:45;;;;;;;7.43;5.43;;;;;;;;;;5047447;28;20041;-72
2023/04/19 00:32:12;;;;;;;8.40;5.35;;;;;;;;;;5050572;28;20100;-72
2023/04/19 00:34:38;;;;;;;8.02;5.35;;;;;;;;;;5042789;28;20423;-72
2023/04/19 00:37:04;;;;;;;7.63;5.32;;;;;;;;;;5044395;28;20033;-72
2023/04/19 00:39:30;;;;;;;7.35;5.40;;;;;;;;;;5052595;28;20385;-72
2023/04/19 00:41:56;;;;;;;7.65;5.75;;;;;;;;;;5042028;28;20041;-72
2023/04/19 00:44:23;;;;;;;8.73;5.38;;;;;;;;;;5047192;28;20049;-73
2023/04/19 00:46:49;;;;;;;8.23;5.90;;;;;;;;;;5049420;28;20059;-72
2023/04/19 00:49:19;;;;;;;6.93;4.90;;;;;;;;;;5027996;28;20033;-72
2023/04/19 00:51:46;;;;;;;10.90;5.68;;;;;;;;;;5047951;28;20122;-72
2023/04/19 00:54:13;;;;;;;8.70;6.13;;;;;;;;;;5047960;28;20067;-72
2023/04/19 00:56:39;;;;;;;8.55;5.18;;;;;;;;;;5026860;28;20140;-72
2023/04/19 00:59:06;;;;;;;6.97;5.57;;;;;;;;;;5049061;28;20065;-72
2023/04/19 01:01:33;;;;;;;8.13;4.82;;;;;;;;;;5049013;28;20489;-72
2023/04/19 01:04:00;;;;;;;7.93;6.10;;;;;;;;;;5048805;28;20163;-72
2023/04/19 01:06:27;;;;;;;6.75;5.50;;;;;;;;;;5041609;28;20397;-74
2023/04/19 01:08:53;;;;;;;8.63;5.45;;;;;;;;;;5043833;28;20261;-72
2023/04/19 01:11:19;;;;;;;11.02;6.03;;;;;;;;;;5044981;28;20391;-74
2023/04/19 01:13:45;;;;;;;9.20;5.88;;;;;;;;;;5046390;28;20052;-72
2023/04/19 01:16:12;;;;;;;11.27;6.13;;;;;;;;;;5048244;28;20081;-72
2023/04/19 01:18:39;;;;;;;9.00;6.22;;;;;;;;;;5043550;28;20069;-72
2023/04/19 01:21:06;;;;;;;13.27;6.63;;;;;;;;;;5041610;28;20057;-72
2023/04/19 01:23:33;;;;;;;10.55;7.28;;;;;;;;;;5040867;28;20127;-72
2023/04/19 01:26:00;;;;;;;11.05;6.03;;;;;;;;;;5032935;28;20036;-72
2023/04/19 01:28:26;;;;;;;8.20;6.63;;;;;;;;;;5050295;28;20040;-72
2023/04/19 01:30:55;;;;;;;10.95;6.32;;;;;;;;;;5047526;28;20543;-72
2023/04/19 01:33:21;;;;;;;12.65;7.30;;;;;;;;;;5040671;28;20055;-72
2023/04/19 01:35:48;;;;;;;8.07;5.80;;;;;;;;;;5040507;28;20032;-72
2023/04/19 01:38:17;;;;;;;10.70;6.93;;;;;;;;;;5048005;28;20037;-73
2023/04/19 01:40:43;;;;;;;9.35;7.05;;;;;;;;;;5034396;28;20061;-72
2023/04/19 01:43:12;;;;;;;10.07;6.28;;;;;;;;;;5034607;28;20441;-72
2023/04/19 01:45:38;;;;;;;11.02;7.22;;;;;;;;;;5044046;28;20044;-72
2023/04/19 01:48:04;;;;;;;12.35;6.18;;;;;;;;;;5047667;28;20421;-73
2023/04/19 01:50:31;;;;;;;12.60;7.63;;;;;;;;;;5047295;28;20041;-72
2023/04/19 01:52:57;;;;;;;10.25;6.85;;;;;;;;;;5051764;28;20029;-73
2023/04/19 01:55:23;;;;;;;13.65;7.50;;;;;;;;;;5034257;28;20037;-73
2023/04/19 01:57:51;;;;;;;12.73;7.15;;;;;;;;;;5047994;28;20060;-72
2023/04/19 02:00:18;;;;;;;10.43;7.85;;;;;;;;;;5045384;28;20053;-72
2023/04/19 02:02:44;;;;;;;10.70;7.75;;;;;;;;;;5052937;28;20044;-72
2023/04/19 02:05:10;;;;;;;12.48;8.13;;;;;;;;;;5032872;28;20089;-72
2023/04/19 02:07:36;;;;;;;12.48;8.55;;;;;;;;;;5050849;28;20127;-72
2023/04/19 02:10:04;;;;;;;12.40;7.80;;;;;;;;;;5044716;28;20042;-72
2023/04/19 02:12:32;;;;;;;10.65;8.00;;;;;;;;;;5046255;28;20356;-72
2023/04/19 02:14:58;;;;;;;11.55;8.05;;;;;;;;;;5049105;28;20049;-72
2023/04/19 02:17:25;;;;;;;12.63;7.97;;;;;;;;;;5035635;28;20045;-72
2023/04/19 02:19:51;;;;;;;12.43;9.20;;;;;;;;;;5048785;28;20041;-73
2023/04/19 02:22:18;;;;;;;14.00;9.60;;;;;;;;;;5046911;28;20088;-72
2023/04/19 02:24:44;;;;;;;14.18;8.43;;;;;;;;;;5049755;28;20037;-72
2023/04/19 02:27:10;;;;;;;13.18;9.25;;;;;;;;;;5049476;28;20083;-72
2023/04/19 02:29:37;;;;;;;15.73;9.57;;;;;;;;;;5045848;28;20106;-73
2023/04/19 02:32:05;;;;;;;12.38;8.10;;;;;;;;;;5045015;28;20351;-73
2023/04/19 02:34:31;;;;;;;12.38;8.90;;;;;;;;;;5046984;28;20045;-72
2023/04/19 02:36:57;;;;;;;15.23;9.13;;;;;;;;;;5054425;28;20044;-72
2023/04/19 02:39:23;;;;;;;13.27;10.38;;;;;;;;;;5044374;28;20064;-72
2023/04/19 02:41:50;;;;;;;12.57;8.85;;;;;;;;;;5049799;28;20518;-72
2023/04/19 02:44:16;;;;;;;13.20;8.68;;;;;;;;;;5044862;28;20059;-73
2023/04/19 02:46:48;;;;;;;12.00;7.53;;;;;;;;;;5049044;28;20051;-72
2023/04/19 02:49:14;;;;;;;16.08;8.88;;;;;;;;;;5055299;28;20040;-71
2023/04/19 02:51:40;;;;;;;15.40;9.05;;;;;;;;;;5048455;28;20040;-72
2023/04/19 02:54:06;;;;;;;12.82;9.35;;;;;;;;;;5051044;28;20051;-72
2023/04/19 02:56:32;;;;;;;12.25;9.07;;;;;;;;;;5047803;28;20095;-72
2023/04/19 02:59:02;;;;;;;13.23;8.93;;;;;;;;;;5042512;28;20065;-72
2023/04/19 03:01:28;;;;;;;13.70;8.82;;;;;;;;;;5041372;28;20041;-72
2023/04/19 03:03:55;;;;;;;13.98;8.23;;;;;;;;;;5047017;28;20084;-72
2023/04/19 03:06:21;;;;;;;13.35;9.25;;;;;;;;;;5062229;28;20401;-72
2023/04/19 03:08:47;;;;;;;12.20;8.38;;;;;;;;;;5031554;28;20114;-71
2023/04/19 03:11:15;;;;;;;13.10;8.43;;;;;;;;;;5050345;28;20098;-73
2023/04/19 03:13:41;;;;;;;10.55;7.90;;;;;;;;;;5026923;28;20045;-72
2023/04/19 03:16:07;;;;;;;12.18;8.68;;;;;;;;;;5052830;28;20037;-72
2023/04/19 03:18:34;;;;;;;12.85;8.38;;;;;;;;;;5052250;28;20426;-72
2023/04/19 03:21:00;;;;;;;11.80;9.02;;;;;;;;;;5048995;28;20037;-73
2023/04/19 03:23:26;;;;;;;11.43;8.50;;;;;;;;;;5049284;28;20045;-72
2023/04/19 03:25:52;;;;;;;13.32;8.52;;;;;;;;;;5060290;28;20115;-72
2023/04/19 03:28:19;;;;;;;11.98;8.32;;;;;;;;;;5052224;28;20052;-72
2023/04/19 03:30:45;;;;;;;13.07;8.68;;;;;;;;;;5048128;28;20048;-72
2023/04/19 03:33:11;;;;;;;11.27;7.63;;;;;;;;;;5039379;28;20353;-72
2023/04/19 03:35:37;;;;;;;10.80;7.80;;;;;;;;;;5054859;28;20390;-72
2023/04/19 03:38:03;;;;;;;11.00;7.63;;;;;;;;;;5050402;28;20614;-71
2023/04/19 03:40:30;;;;;;;15.40;8.68;;;;;;;;;;5033414;28;20262;-72
2023/04/19 03:42:56;;;;;;;14.35;7.55;;;;;;;;;;5052140;28;20069;-72
2023/04/19 03:45:22;;;;;;;13.45;8.18;;;;;;;;;;5051717;28;20132;-72
2023/04/19 03:47:49;;;;;;;9.55;8.00;;;;;;;;;;5043572;28;20036;-72
2023/04/19 03:50:15;;;;;;;13.88;7.70;;;;;;;;;;5048966;28;20118;-72
2023/04/19 03:52:41;;;;;;;15.35;8.52;;;;;;;;;;5038205;28;20098;-73
2023/04/19 03:55:07;;;;;;;12.57;9.13;;;;;;;;;;5054477;28;20379;-72
2023/04/19 03:57:34;;;;;;;10.98;8.20;;;;;;;;;;5049021;28;20037;-73
2023/04/19 04:00:00;;;;;;;11.55;8.05;;;;;;;;;;5030377;28;20159;-73
2023/04/19 04:02:26;;;;;;;10.95;7.53;;;;;;;;;;5048417;28;20419;-73
2023/04/19 04:04:55;;;;;;;11.63;8.70;;;;;;;;;;5051300;28;20044;-73
2023/04/19 04:07:22;;;;;;;11.52;7.32;;;;;;;;;;5050326;28;20439;-72
2023/04/19 04:09:48;;;;;;;10.73;8.18;;;;;;;;;;5053005;28;20055;-72
2023/04/19 04:12:15;;;;;;;9.52;7.25;;;;;;;;;;5049739;28;20067;-72
2023/04/19 04:14:41;;;;;;;12.38;8.40;;;;;;;;;;5040108;28;20042;-72
2023/04/19 04:17:07;;;;;;;12.00;7.30;;;;;;;;;;5047255;28;20036;-71
2023/04/19 04:19:34;;;;;;;10.77;8.15;;;;;;;;;;5044723;28;20066;-71
2023/04/19 04:22:00;;;;;;;12.32;8.10;;;;;;;;;;5036745;28;20037;-72
2023/04/19 04:24:26;;;;;;;12.80;7.93;;;;;;;;;;5052049;28;20071;-72
2023/04/19 04:26:53;;;;;;;13.45;7.78;;;;;;;;;;5016257;28;20043;-72
2023/04/19 04:29:19;;;;;;;10.20;7.57;;;;;;;;;;5049635;28;20449;-72
2023/04/19 04:31:45;;;;;;;9.57;6.95;;;;;;;;;;5048453;28;20119;-72
2023/04/19 04:34:11;;;;;;;15.18;7.55;;;;;;;;;;5014136;28;20044;-72
2023/04/19 04:36:37;;;;;;;11.27;7.78;;;;;;;;;;5053444;28;20111;-72
2023/04/19 04:39:05;;;;;;;11.38;7.22;;;;;;;;;;5048123;28;20048;-73
2023/04/19 04:41:31;;;;;;;9.23;7.40;;;;;;;;;;4993961;28;20037;-72
2023/04/19 04:43:59;;;;;;;13.77;7.60;;;;;;;;;;5043254;28;20041;-73
2023/04/19 04:46:25;;;;;;;10.20;6.65;;;;;;;;;;5043866;28;20506;-73
2023/04/19 04:48:52;;;;;;;11.75;7.78;;;;;;;;;;5046370;28;20079;-71
2023/04/19 04:51:18;;;;;;;12.43;7.38;;;;;;;;;;5045195;28;20518;-71
2023/04/19 04:53:46;;;;;;;10.00;7.32;;;;;;;;;;5044621;28;20065;-71
2023/04/19 04:56:12;;;;;;;8.35;6.95;;;;;;;;;;5045605;28;20461;-71
2023/04/19 04:58:38;;;;;;;8.38;6.18;;;;;;;;;;5046117;28;20060;-72
2023/04/19 05:01:04;;;;;;;13.95;7.63;;;;;;;;;;5035666;28;20045;-72
2023/04/19 05:03:30;;;;;;;11.05;6.95;;;;;;;;;;5035870;28;20037;-71
2023/04/19 05:05:56;;;;;;;11.57;7.93;;;;;;;;;;5013711;28;20037;-72
2023/04/19 05:08:23;;;;;;;9.40;6.53;;;;;;;;;;5048539;28;20037;-72
2023/04/19 05:10:49;;;;;;;8.88;5.75;;;;;;;;;;5044983;28;20040;-72
2023/04/19 05:13:15;;;;;;;11.80;6.43;;;;;;;;;;5047015;28;20025;-74
2023/04/19 05:15:41;;;;;;;8.70;6.32;;;;;;;;;;5038790;28;20615;-72
2023/04/19 05:18:07;;;;;;;9.32;6.22;;;;;;;;;;5043756;28;20095;-72
2023/04/19 05:20:33;;;;;;;12.00;6.45;;;;;;;;;;5047584;28;20041;-73
2023/04/19 05:23:02;;;;;;;8.95;5.55;;;;;;;;;;5042208;28;20079;-72
2023/04/19 05:25:28;;;;;;;7.93;5.47;;;;;;;;;;5057914;28;20052;-74
2023/04/19 05:27:55;;;;;;;7.53;5.53;;;;;;;;;;5054941;28;20044;-73
2023/04/19 05:30:21;;;;;;;10.05;6.05;;;;;;;;;;5049416;28;20107;-72
2023/04/19 05:32:47;;;;;;;10.00;6.07;;;;;;;;;;5056034;28;20037;-72
2023/04/19 05:35:13;;;;;;;8.85;6.13;;;;;;;;;;5049262;28;20045;-72
2023/04/19 05:37:40;;;;;;;10.45;5.85;;;;;;;;;;5048776;28;20379;-72
2023/04/19 05:40:08;;;;;;;8.10;5.78;;;;;;;;;;5052663;28;20063;-72
2023/04/19 05:42:35;;;;;;;7.97;5.47;;;;;;;;;;5054613;28;20044;-72
2023/04/19 05:45:01;;;;;;;8.43;5.15;;;;;;;;;;5048715;28;20103;-72
2023/04/19 05:47:27;;;;;;;9.10;4.78;;;;;;;;;;5049472;28;20124;-72
2023/04/19 05:49:53;;;;;;;8.65;5.28;;;;;;;;;;5045169;28;20083;-71
2023/04/19 05:52:19;;;;;;;6.97;4.90;;;;;;;;;;5047660;28;20049;-72
2023/04/19 05:54:46;;;;;;;6.45;5.25;;;;;;;;;;5049661;28;20049;-72
2023/04/19 05:57:12;;;;;;;6.55;4.70;;;;;;;;;;5046729;28;20049;-73
2023/04/19 05:59:38;;;;;;;6.40;4.30;;;;;;;;;;5045779;28;20056;-71
2023/04/19 06:02:04;;;;;;;9.07;5.65;;;;;;;;;;5049010;28;20053;-71
2023/04/19 06:04:30;;;;;;;5.78;4.38;;;;;;;;;;5046255;28;20040;-72
2023/04/19 06:06:56;;;;;;;7.10;4.78;;;;;;;;;;5028802;28;20037;-72
2023/04/19 06:09:22;;;;;;;8.93;5.10;;;;;;;;;;5052296;28;20430;-72
2023/04/19 06:11:49;;;;;;;15.30;7.22;;;;;;;;;;5030022;28;20045;-73
2023/04/19 06:14:15;;;;;;;6.60;4.25;;;;;;;;;;5049795;28;20033;-72
2023/04/19 06:16:41;;;;;;;6.72;4.43;;;;;;;;;;5047875;28;20045;-72
2023/04/19 06:19:07;;;;;;;8.38;4.18;;;;;;;;;;5047135;28;20040;-72
2023/04/19 06:21:34;;;;;;;8.10;4.88;;;;;;;;;;5046199;28;20044;-72
2023/04/19 06:24:00;;;;;;;6.25;4.45;;;;;;;;;;5048546;28;20045;-73
2023/04/19 06:26:26;;;;;;;9.77;5.22;;;;;;;;;;5037024;28;20479;-73
2023/04/19 06:28:52;;;;;;;7.65;5.07;;;;;;;;;;5039540;28;20321;-73
2023/04/19 06:31:18;;;;;;;8.70;5.28;;;;;;;;;;5038537;28;20455;-72
2023/04/19 06:33:45;;;;;;;6.90;3.97;;;;;;;;;;5049177;28;20045;-73
2023/04/19 06:36:11;;;;;;;10.45;4.63;;;;;;;;;;5052892;28;20418;-73
2023/04/19 06:38:37;;;;;;;7.22;4.82;;;;;;;;;;5048361;28;20061;-73
2023/04/19 06:41:04;;;;;;;9.57;4.75;;;;;;;;;;5047387;28;20075;-73
2023/04/19 06:43:30;;;;;;;5.53;4.32;;;;;;;;;;5047677;28;20041;-71
2023/04/19 06:45:59;;;;;;;7.65;4.57;;;;;;;;;;5044809;28;20044;-73
2023/04/19 06:48:26;;;;;;;5.57;4.00;;;;;;;;;;5049122;28;20036;-73
2023/04/19 06:50:53;;;;;;;5.88;3.70;;;;;;;;;;5045229;28;20095;-73
2023/04/19 06:53:19;;;;;;;6.70;3.72;;;;;;;;;;5037332;28;20037;-73
2023/04/19 06:55:45;;;;;;;6.05;3.83;;;;;;;;;;5038871;28;20775;-72
2023/04/19 06:58:12;;;;;;;6.57;4.18;;;;;;;;;;5045292;28;20085;-74
2023/04/19 07:00:38;;;;;;;6.30;3.58;;;;;;;;;;5046385;28;20268;-73
2023/04/19 07:03:04;;;;;;;8.20;4.07;;;;;;;;;;5036615;28;20092;-73
2023/04/19 07:05:30;;;;;;;6.07;4.20;;;;;;;;;;5033228;28;20660;-73
2023/04/19 07:07:57;;;;;;;9.60;4.20;;;;;;;;;;5050953;28;20045;-73
2023/04/19 07:10:23;;;;;;;7.53;3.70;;;;;;;;;;5035311;28;20041;-73
2023/04/19 07:12:50;;;;;;;5.95;3.58;;;;;;;;;;5046170;28;20037;-72
2023/04/19 07:15:16;;;;;;;6.70;3.67;;;;;;;;;;5049072;28;20037;-72
2023/04/19 07:17:42;;;;;;;4.68;3.22;;;;;;;;;;5049160;28;20657;-72
2023/04/19 07:20:09;;;;;;;5.28;3.08;;;;;;;;;;5048561;28;20422;-72
2023/04/19 07:22:35;;;;;;;7.43;3.20;;;;;;;;;;5054970;28;20336;-72
2023/04/19 07:25:01;;;;;;;6.70;4.05;;;;;;;;;;5050533;28;20136;-72
2023/04/19 07:27:27;;;;;;;4.72;3.05;;;;;;;;;;5041453;28;20094;-73
2023/04/19 07:29:53;;;;;;;6.05;3.65;;;;;;;;;;5044865;28;20037;-73
2023/04/19 07:32:19;;;;;;;5.47;3.60;;;;;;;;;;5046988;28;20358;-73
2023/04/19 07:34:45;;;;;;;9.45;3.17;;;;;;;;;;5025274;28;20041;-72
2023/04/19 07:37:12;;;;;;;6.53;3.15;;;;;;;;;;5029261;28;20114;-73
2023/04/19 07:39:38;;;;;;;4.68;3.72;;;;;;;;;;5039880;28;20493;-71
2023/04/19 07:42:04;;;;;;;6.00;3.70;;;;;;;;;;5040200;28;20041;-71
2023/04/19 07:44:31;;;;;;;5.68;3.42;;;;;;;;;;5046552;28;20453;-71
2023/04/19 07:46:57;;;;;;;4.45;2.88;;;;;;;;;;5039023;28;20140;-71
2023/04/19 07:49:23;;;;;;;6.95;3.10;;;;;;;;;;5046917;28;20399;-71
2023/04/19 07:51:50;;;;;;;8.70;3.20;;;;;;;;;;5040387;28;20549;-71
2023/04/19 07:54:18;;;;;;;4.13;2.90;;;;;;;;;;5046575;28;20044;-73
2023/04/19 07:56:45;;;;;;;5.75;2.80;;;;;;;;;;5017905;28;20045;-73
2023/04/19 07:59:11;;;;;;;5.88;2.50;;;;;;;;;;5037015;28;20485;-71
2023/04/19 08:01:37;;;;;;;4.05;2.50;;;;;;;;;;5043172;28;20378;-71
2023/04/19 08:04:03;;;;;;;3.40;2.30;;;;;;;;;;5027890;28;20044;-72
2023/04/19 08:06:31;;;;;;;8.88;2.35;;;;;;;;;;5044850;28;20036;-74
2023/04/19 08:08:57;;;;;;;3.85;2.50;;;;;;;;;;5055427;28;20037;-71
2023/04/19 08:11:24;;;;;;;5.07;2.42;;;;;;;;;;5047126;28;20038;-71
2023/04/19 08:13:50;;;;;;;4.72;2.70;;;;;;;;;;5045789;28;20052;-71
2023/04/19 08:16:16;;;;;;;3.88;2.45;;;;;;;;;;5044352;28;20502;-71
2023/04/19 08:18:45;;;;;;;3.45;2.35;;;;;;;;;;5042101;28;20560;-71
2023/04/19 08:21:11;;;;;;;3.42;2.13;;;;;;;;;;5044194;28;20049;-71
2023/04/19 08:23:37;;;;;;;2.47;2.03;;;;;;;;;;5044994;28;20516;-71
2023/04/19 08:26:03;;;;;;;4.57;2.90;;;;;;;;;;5022295;28;20276;-71
2023/04/19 08:28:30;;;;;;;4.10;2.50;;;;;;;;;;5039144;28;20056;-71
2023/04/19 08:30:57;;;;;;;4.88;1.95;;;;;;;;;;5043660;28;20111;-71
2023/04/19 08:33:23;;;;;;;5.32;2.53;;;;;;;;;;5026461;28;20060;-71
2023/04/19 08:35:49;;;;;;;4.00;2.75;;;;;;;;;;5046922;28;20662;-72
2023/04/19 08:38:15;;;;;;;3.85;2.17;;;;;;;;;;5050651;28;20467;-71
2023/04/19 08:40:47;;;;;;;3.20;2.20;;;;;;;;;;5043281;28;20448;-71
2023/04/19 08:43:13;;;;;;;4.57;2.85;;;;;;;;;;5036392;28;20040;-71
2023/04/19 08:45:39;;;;;;;4.07;2.00;;;;;;;;;;5042621;28;20565;-72
2023/04/19 08:48:10;;;;;;;6.07;2.72;;;;;;;;;;5028630;28;20029;-72
2023/04/19 08:50:37;;;;;;;4.63;2.15;;;;;;;;;;5042465;28;20034;-72
2023/04/19 08:53:04;;;;;;;6.30;2.22;;;;;;;;;;5041632;28;20119;-71
2023/04/19 08:55:30;;;;;;;4.40;2.53;;;;;;;;;;5039211;28;20503;-71
2023/04/19 08:57:57;;;;;;;4.13;2.17;;;;;;;;;;5023738;28;20442;-72
2023/04/19 09:00:23;;;;;;;5.35;2.75;;;;;;;;;;4987988;28;20073;-72
2023/04/19 09:02:51;;;;;;;3.22;1.85;;;;;;;;;;5010958;28;20089;-72
2023/04/19 09:05:18;;;;;;;5.30;1.80;;;;;;;;;;5028760;28;20045;-72
2023/04/19 09:07:45;;;;;;;4.78;2.03;;;;;;;;;;5025157;28;20038;-72
2023/04/19 09:10:15;;;;;;;3.83;1.98;;;;;;;;;;5012320;28;20037;-72
2023/04/19 09:12:42;;;;;;;5.53;2.47;;;;;;;;;;5023074;28;20414;-71
2023/04/19 09:15:09;;;;;;;4.60;1.88;;;;;;;;;;5026074;28;20049;-71
2023/04/19 09:17:36;;;;;;;3.45;1.70;;;;;;;;;;5019804;28;20042;-71
2023/04/19 09:20:03;;;;;;;2.63;1.60;;;;;;;;;;5006340;28;20382;-72
2023/04/19 09:22:29;;;;;;;3.97;1.98;;;;;;;;;;5027978;28;20049;-72
2023/04/19 09:24:55;;;;;;;3.65;1.73;;;;;;;;;;5020768;28;20073;-72
2023/04/19 09:27:39;;;;;;;3.22;1.67;;;;;;;;;;5002690;28;20107;-72
2023/04/19 09:30:06;;;;;;;3.25;2.17;;;;;;;;;;5006984;28;20545;-72
2023/04/19 09:33:01;;;;;;;2.58;1.90;;;;;;;;;;5024338;28;20041;-72
2023/04/19 09:35:44;;;;;;;3.30;1.88;;;;;;;;;;5003966;28;20055;-73
2023/04/19 09:38:11;;;;;;;2.63;1.80;;;;;;;;;;5026652;28;20037;-71
2023/04/19 09:40:38;;;;;;;7.60;2.33;;;;;;;;;;5012206;28;20175;-71
2023/04/19 09:43:04;;;;;;;5.20;1.90;;;;;;;;;;5019411;28;20057;-72
2023/04/19 09:45:41;;;;;;;3.15;1.50;;;;;;;;;;5025600;28;20094;-72
2023/04/19 09:48:07;;;;;;;5.75;1.80;;;;;;;;;;5002787;28;20037;-72
2023/04/19 09:50:34;;;;;;;4.18;2.17;;;;;;;;;;5025890;28;20502;-72
2023/04/19 09:53:00;;;;;;;4.10;1.80;;;;;;;;;;5033542;28;20403;-72
2023/04/19 09:55:26;;;;;;;2.13;1.65;;;;;;;;;;5006647;28;20053;-72
2023/04/19 09:57:53;;;;;;;2.28;1.20;;;;;;;;;;5031604;28;20110;-72
2023/04/19 10:00:23;;;;;;;5.70;1.90;;;;;;;;;;5042237;28;20524;-72
2023/04/19 10:02:56;;;;;;;3.13;1.90;;;;;;;;;;5044089;28;20041;-72
2023/04/19 10:05:24;;;;;;;3.40;2.20;;;;;;;;;;5034586;28;20061;-72
2023/04/19 10:07:51;;;;;;;3.05;2.08;;;;;;;;;;5035846;28;20379;-71
2023/04/19 10:10:17;;;;;;;2.72;1.73;;;;;;;;;;5045134;28;20094;-71
2023/04/19 10:12:47;;;;;;;2.42;1.35;;;;;;;;;;5043413;28;20045;-72
2023/04/19 10:15:14;;;;;;;7.20;2.13;;;;;;;;;;5046842;28;20045;-72
2023/04/19 10:17:41;;;;;;;3.00;2.00;;;;;;;;;;5046683;28;20044;-72
2023/04/19 10:20:09;;;;;;;3.53;1.52;;;;;;;;;;5046780;28;20041;-72
2023/04/19 10:22:38;;;;;;;6.03;1.67;;;;;;;;;;5003330;28;20514;-73
2023/04/19 10:25:11;;;;;;;3.70;1.73;;;;;;;;;;5031981;28;20049;-71
2023/04/19 10:27:38;;;;;;;3.97;2.00;;;;;;;;;;5039229;28;20433;-71
2023/04/19 10:30:09;;;;;;;4.03;1.77;;;;;;;;;;5049122;28;20032;-71
2023/04/19 10:32:42;;;;;;;4.30;1.73;;;;;;;;;;5052126;28;20097;-73
2023/04/19 10:35:09;;;;;;;4.10;1.60;;;;;;;;;;5039568;28;20380;-74
2023/04/19 10:37:39;;;;;;;5.10;1.83;;;;;;;;;;5045379;28;20451;-71
2023/04/19 10:40:06;;;;;;;4.47;1.95;;;;;;;;;;5049500;28;20048;-71
2023/04/19 10:42:51;;;;;;;3.08;1.63;;;;;;;;;;5048258;28;20045;-74
2023/04/19 10:45:33;;;;;;;2.03;1.20;;;;;;;;;;5055890;28;20048;-73
2023/04/19 10:48:02;;;;;;;2.50;1.60;;;;;;;;;;5051412;28;20565;-71
2023/04/19 10:50:28;;;;;;;4.32;1.88;;;;;;;;;;5047628;28;20394;-71
2023/04/19 10:52:54;;;;;;;5.70;1.45;;;;;;;;;;5027674;28;20294;-72
2023/04/19 10:55:21;;;;;;;3.67;1.75;;;;;;;;;;5038663;28;20080;-72
2023/04/19 10:58:07;;;;;;;7.80;1.73;;;;;;;;;;5041517;28;20111;-72
2023/04/19 11:00:35;;;;;;;4.55;1.98;;;;;;;;;;5009944;28;20126;-72
2023/04/19 11:03:21;;;;;;;3.53;2.50;;;;;;;;;;5038541;28;20049;-72
2023/04/19 11:06:05;;;;;;;4.05;1.85;;;;;;;;;;5044258;28;20524;-73
2023/04/19 11:08:31;;;;;;;10.48;2.30;;;;;;;;;;5041815;28;20397;-72
2023/04/19 11:10:58;;;;;;;7.68;2.40;;;;;;;;;;5033064;28;20044;-72
2023/04/19 11:13:24;;;;;;;3.88;2.10;;;;;;;;;;5040949;28;20486;-72
2023/04/19 11:15:50;;;;;;;4.38;2.22;;;;;;;;;;5052359;28;20037;-72
2023/04/19 11:18:19;;;;;;;4.97;2.05;;;;;;;;;;5053094;28;20556;-72
2023/04/19 11:20:45;;;;;;;4.55;1.65;;;;;;;;;;5049080;28;20037;-72
2023/04/19 11:23:18;;;;;;;3.78;1.55;;;;;;;;;;5046762;28;20072;-72
2023/04/19 11:25:45;;;;;;;4.10;1.50;;;;;;;;;;5057452;28;20713;-72
2023/04/19 11:28:11;;;;;;;2.78;1.63;;;;;;;;;;5051165;28;20447;-72
2023/04/19 11:30:37;;;;;;;4.57;1.67;;;;;;;;;;5046447;28;20091;-72
2023/04/19 11:33:03;;;;;;;5.70;1.63;;;;;;;;;;5047950;28;20038;-72
2023/04/19 11:35:30;;;;;;;4.63;1.92;;;;;;;;;;5045886;28;20114;-72
2023/04/19 11:37:58;;;;;;;2.95;1.90;;;;;;;;;;5047199;28;20064;-72
2023/04/19 11:40:25;;;;;;;3.22;2.03;;;;;;;;;;5054506;28;20044;-72
2023/04/19 11:42:55;;;;;;;9.88;2.10;;;;;;;;;;5048313;28;20041;-72
2023/04/19 11:45:28;;;;;;;3.92;1.80;;;;;;;;;;5051270;28;20049;-71
2023/04/19 11:47:55;;;;;;;3.00;1.80;;;;;;;;;;5045975;28;20033;-72
2023/04/19 11:50:37;;;;;;;3.88;2.00;;;;;;;;;;5049747;28;20501;-72
2023/04/19 11:53:14;;;;;;;5.82;2.20;;;;;;;;;;5020609;28;20033;-72
2023/04/19 11:56:03;;;;;;;3.38;2.10;;;;;;;;;;5036354;28;20056;-72
2023/04/19 11:58:36;;;;;;;5.35;2.10;;;;;;;;;;5027987;28;20136;-72
2023/04/19 12:01:06;;;;;;;9.15;1.88;;;;;;;;;;5034450;28;20049;-72
2023/04/19 12:03:33;;;;;;;4.72;2.42;;;;;;;;;;5027192;28;20037;-72
2023/04/19 12:06:09;;;;;;;7.00;1.92;;;;;;;;;;5027155;28;20057;-72
2023/04/19 12:08:39;;;;;;;4.32;2.15;;;;;;;;;;5024130;28;20492;-73
2023/04/19 12:11:05;;;;;;;5.28;1.92;;;;;;;;;;5028592;28;20539;-72
2023/04/19 12:13:32;;;;;;;3.72;2.63;;;;;;;;;;5024597;28;20041;-72
2023/04/19 12:15:58;;;;;;;4.55;1.90;;;;;;;;;;5020526;28;20068;-72
2023/04/19 12:18:25;;;;;;;4.60;2.65;;;;;;;;;;5033100;28;20041;-72
2023/04/19 12:20:51;;;;;;;8.40;2.63;;;;;;;;;;5028961;28;20488;-73
2023/04/19 12:23:19;;;;;;;3.83;2.17;;;;;;;;;;5025043;28;20050;-72
2023/04/19 12:25:48;;;;;;;4.60;2.33;;;;;;;;;;5019456;28;20041;-72
2023/04/19 12:28:15;;;;;;;5.13;2.88;;;;;;;;;;5019985;28;20037;-72
2023/04/19 12:30:41;;;;;;;3.78;2.40;;;;;;;;;;5024302;28;20033;-72
2023/04/19 12:33:07;;;;;;;3.72;2.20;;;;;;;;;;5020931;28;20126;-72
2023/04/19 12:35:34;;;;;;;4.30;2.65;;;;;;;;;;5018764;28;20045;-72
2023/04/19 12:38:01;;;;;;;7.65;2.85;;;;;;;;;;5024505;28;20048;-72
2023/04/19 12:40:28;;;;;;;5.22;2.92;;;;;;;;;;5026818;28;20038;-72
2023/04/19 12:42:54;;;;;;;4.93;2.97;;;;;;;;;;5024655;28;20063;-72
2023/04/19 12:45:21;;;;;;;3.20;2.45;;;;;;;;;;5023519;28;20049;-72
2023/04/19 12:47:48;;;;;;;5.72;2.55;;;;;;;;;;5017923;28;20038;-72
2023/04/19 12:50:15;;;;;;;6.85;3.30;;;;;;;;;;5026447;28;20097;-72
2023/04/19 12:52:41;;;;;;;6.32;2.95;;;;;;;;;;5018993;28;20441;-72
2023/04/19 12:55:08;;;;;;;4.47;2.83;;;;;;;;;;5015280;28;20081;-73
2023/04/19 12:57:34;;;;;;;3.75;2.28;;;;;;;;;;5024518;28;20092;-72
2023/04/19 13:00:01;;;;;;;4.93;2.80;;;;;;;;;;5040232;28;20037;-72
2023/04/19 13:02:27;;;;;;;5.10;2.70;;;;;;;;;;5027628;28;20171;-72
2023/04/19 13:04:53;;;;;;;5.75;2.67;;;;;;;;;;5033962;28;20084;-72
2023/04/19 13:07:19;;;;;;;8.77;3.45;;;;;;;;;;5027000;28;20041;-72
2023/04/19 13:09:45;;;;;;;3.30;2.17;;;;;;;;;;5044664;28;20099;-72
2023/04/19 13:12:11;;;;;;;5.25;3.50;;;;;;;;;;5041248;28;20726;-72
2023/04/19 13:14:38;;;;;;;5.65;3.25;;;;;;;;;;5037633;28;20418;-72
2023/04/19 13:17:04;;;;;;;4.40;2.70;;;;;;;;;;5049920;28;20044;-72
2023/04/19 13:19:30;;;;;;;9.05;3.88;;;;;;;;;;5044935;28;20516;-72
2023/04/19 13:21:56;;;;;;;7.22;3.45;;;;;;;;;;5045069;28;20271;-72
2023/04/19 13:24:22;;;;;;;8.93;3.38;;;;;;;;;;5048935;28;20143;-72
2023/04/19 13:26:49;;;;;;;8.60;3.65;;;;;;;;;;5043875;28;20041;-73
2023/04/19 13:29:15;;;;;;;4.47;3.08;;;;;;;;;;5043525;28;20268;-72
2023/04/19 13:31:42;;;;;;;5.13;3.80;;;;;;;;;;5046902;28;20036;-72
2023/04/19 13:34:08;;;;;;;6.25;3.45;;;;;;;;;;5053701;28;20044;-72
2023/04/19 13:36:34;;;;;;;8.60;3.22;;;;;;;;;;5046843;28;20064;-72
2023/04/19 13:39:01;;;;;;;4.82;2.97;;;;;;;;;;5041449;28;20033;-72
2023/04/19 13:41:27;;;;;;;5.55;2.97;;;;;;;;;;5039190;28;20510;-72
2023/04/19 13:43:53;;;;;;;6.68;3.55;;;;;;;;;;5029237;28;20059;-72
2023/04/19 13:46:19;;;;;;;6.40;3.45;;;;;;;;;;5042148;28;20049;-72
2023/04/19 13:48:45;;;;;;;6.60;3.63;;;;;;;;;;5039997;28;20698;-72
2023/04/19 13:51:12;;;;;;;8.30;3.17;;;;;;;;;;5033213;28;20040;-72
2023/04/19 13:53:39;;;;;;;8.35;3.90;;;;;;;;;;5044471;28;20041;-72
2023/04/19 13:56:08;;;;;;;10.50;3.78;;;;;;;;;;5041991;28;20440;-72
2023/04/19 13:58:34;;;;;;;5.53;3.00;;;;;;;;;;5040149;28;20053;-71
2023/04/19 14:01:00;;;;;;;6.40;3.63;;;;;;;;;;5022139;28;20550;-73
2023/04/19 14:03:26;;;;;;;8.10;3.70;;;;;;;;;;5048016;28;20367;-73
2023/04/19 14:05:52;;;;;;;5.05;2.92;;;;;;;;;;5044531;28;20044;-73
2023/04/19 14:08:19;;;;;;;6.05;3.25;;;;;;;;;;5048063;28;20043;-73
2023/04/19 14:10:46;;;;;;;6.32;3.28;;;;;;;;;;5043278;28;20051;-73
2023/04/19 14:13:12;;;;;;;6.53;3.08;;;;;;;;;;5035956;28;20048;-73
2023/04/19 14:15:38;;;;;;;8.35;3.28;;;;;;;;;;5046565;28;20179;-73
2023/04/19 14:18:04;;;;;;;4.93;3.30;;;;;;;;;;5046588;28;20095;-73
2023/04/19 14:20:30;;;;;;;7.72;3.30;;;;;;;;;;5038684;28;20045;-73
2023/04/19 14:22:59;;;;;;;8.25;2.72;;;;;;;;;;5041055;28;20045;-73
2023/04/19 14:25:25;;;;;;;4.85;3.10;;;;;;;;;;5045743;28;20473;-73
2023/04/19 14:27:51;;;;;;;5.95;3.33;;;;;;;;;;5043165;28;20501;-73
2023/04/19 14:30:18;;;;;;;6.10;3.47;;;;;;;;;;5040024;28;20045;-73
2023/04/19 14:32:44;;;;;;;8.15;3.42;;;;;;;;;;5040184;28;20041;-74
2023/04/19 14:35:10;;;;;;;5.97;3.42;;;;;;;;;;5046179;28;20154;-73
2023/04/19 14:37:37;;;;;;;5.07;2.95;;;;;;;;;;5050966;28;20041;-73